createdAt,value
2022-09-06T00:00:27.816Z,63.78
2022-09-06T00:02:55.276Z,63.58
2022-09-06T00:05:22.650Z,63.51
2022-09-06T00:07:49.779Z,63.36
2022-09-06T00:10:17.137Z,63.27
2022-09-06T00:12:44.310Z,63.08
2022-09-06T00:15:11.607Z,63.42
2022-09-06T00:17:38.840Z,63.32
2022-09-06T00:20:09.217Z,63.48
2022-09-06T00:22:37.560Z,63.63
2022-09-06T00:25:07.152Z,63.65
2022-09-06T00:27:35.070Z,63.67
2022-09-06T00:30:04.633Z,63.94
2022-09-06T00:32:32.500Z,64.09
2022-09-06T00:34:59.644Z,64.10
2022-09-06T00:37:26.893Z,64.07
2022-09-06T00:39:54.042Z,63.92
2022-09-06T00:42:21.346Z,64.05
2022-09-06T00:44:49.975Z,63.90
2022-09-06T00:47:17.298Z,63.92
2022-09-06T00:49:48.164Z,63.83
2022-09-06T00:52:17.364Z,63.94
2022-09-06T00:54:44.694Z,63.87
2022-09-06T00:57:13.761Z,63.71
2022-09-06T00:59:43.884Z,63.59
2022-09-06T01:02:11.509Z,63.43
2022-09-06T01:04:42.527Z,63.56
2022-09-06T01:07:54.408Z,63.22
2022-09-06T01:11:04.523Z,63.39
2022-09-06T01:13:48.710Z,62.93
2022-09-06T01:16:44.681Z,62.99
2022-09-06T01:20:13.663Z,62.93
2022-09-06T01:23:11.832Z,62.71
2022-09-06T01:26:18.913Z,62.74
2022-09-06T01:28:46.654Z,62.60
2022-09-06T01:31:33.349Z,62.69
2022-09-06T01:34:06.154Z,62.64
2022-09-06T01:37:08.565Z,62.77
2022-09-06T01:39:37.519Z,62.44
2022-09-06T01:42:13.880Z,62.42
2022-09-06T01:44:46.653Z,61.85
2022-09-06T01:47:37.281Z,61.72
2022-09-06T01:50:23.372Z,61.94
2022-09-06T01:53:49.997Z,62.03
2022-09-06T01:56:25.882Z,61.33
2022-09-06T01:59:08.583Z,61.32
2022-09-06T02:02:06.485Z,61.55
2022-09-06T02:04:47.701Z,61.45
2022-09-06T02:07:25.633Z,61.41
2022-09-06T02:10:20.461Z,61.25
2022-09-06T02:12:53.016Z,61.38
2022-09-06T02:15:35.221Z,61.42
2022-09-06T02:18:15.747Z,61.22
2022-09-06T02:20:51.435Z,61.30
2022-09-06T02:23:21.270Z,61.39
2022-09-06T02:25:55.190Z,61.18
2022-09-06T02:28:23.619Z,61.03
2022-09-06T02:30:58.364Z,60.92
2022-09-06T02:33:30.906Z,60.83
2022-09-06T02:36:08.258Z,60.73
2022-09-06T02:38:38.220Z,60.41
2022-09-06T02:41:06.867Z,60.30
2022-09-06T02:43:34.077Z,60.08
2022-09-06T02:46:01.665Z,60.09
2022-09-06T02:48:29.180Z,60.17
2022-09-06T02:50:56.264Z,60.18
2022-09-06T02:53:23.510Z,60.12
2022-09-06T02:55:50.670Z,60.20
2022-09-06T02:58:17.824Z,60.03
2022-09-06T03:00:45.213Z,59.91
2022-09-06T03:03:12.407Z,59.89
2022-09-06T03:05:39.637Z,59.76
2022-09-06T03:08:06.832Z,59.97
2022-09-06T03:10:34.006Z,59.92
2022-09-06T03:13:01.147Z,59.90
2022-09-06T03:15:28.319Z,59.69
2022-09-06T03:17:59.840Z,59.72
2022-09-06T03:20:27.121Z,59.92
2022-09-06T03:22:54.330Z,59.67
2022-09-06T03:25:21.926Z,59.91
2022-09-06T03:27:49.132Z,59.68
2022-09-06T03:30:16.433Z,59.58
2022-09-06T03:32:43.708Z,59.63
2022-09-06T03:35:11.598Z,59.70
2022-09-06T03:37:38.767Z,59.66
2022-09-06T03:40:07.067Z,59.40
2022-09-06T03:42:34.223Z,59.54
2022-09-06T03:45:01.439Z,59.28
2022-09-06T03:47:28.561Z,59.14
2022-09-06T03:49:55.738Z,58.91
2022-09-06T03:52:22.997Z,58.57
2022-09-06T03:54:50.133Z,58.53
2022-09-06T03:57:17.328Z,58.57
2022-09-06T03:59:44.434Z,58.77
2022-09-06T04:02:11.644Z,59.00
2022-09-06T04:04:38.869Z,59.04
2022-09-06T04:07:06.051Z,58.93
2022-09-06T04:09:33.276Z,58.94
2022-09-06T04:12:00.436Z,59.08
2022-09-06T04:14:27.594Z,59.13
2022-09-06T04:16:54.857Z,59.20
2022-09-06T04:19:22.293Z,59.19
2022-09-06T04:21:49.447Z,59.09
2022-09-06T04:24:16.579Z,59.00
2022-09-06T04:26:43.714Z,59.05
2022-09-06T04:29:10.797Z,59.25
2022-09-06T04:31:38.169Z,59.27
2022-09-06T04:34:05.326Z,58.96
2022-09-06T04:36:32.586Z,59.25
2022-09-06T04:38:59.699Z,59.02
2022-09-06T04:41:26.852Z,58.73
2022-09-06T04:43:53.991Z,58.21
2022-09-06T04:46:30.007Z,57.81
2022-09-06T04:48:58.060Z,57.41
2022-09-06T04:51:25.911Z,57.53
2022-09-06T04:53:53.457Z,57.19
2022-09-06T04:56:23.232Z,56.72
2022-09-06T04:58:53.785Z,56.56
2022-09-06T05:01:21.481Z,56.29
2022-09-06T05:03:49.060Z,56.04
2022-09-06T05:06:24.719Z,55.55
2022-09-06T05:08:52.523Z,55.39
2022-09-06T05:11:20.249Z,54.81
2022-09-06T05:13:47.777Z,54.90
2022-09-06T05:16:15.386Z,54.36
2022-09-06T05:18:42.623Z,54.17
2022-09-06T05:21:10.366Z,53.93
2022-09-06T05:23:37.580Z,54.01
2022-09-06T05:26:05.158Z,53.91
2022-09-06T05:28:32.374Z,53.34
2022-09-06T05:31:28.456Z,52.64
2022-09-06T05:33:56.543Z,52.47
2022-09-06T05:36:25.302Z,52.17
2022-09-06T05:38:54.437Z,52.33
2022-09-06T05:41:22.979Z,52.25
2022-09-06T05:43:50.208Z,52.49
2022-09-06T05:46:17.939Z,51.75
2022-09-06T05:48:52.086Z,51.42
2022-09-06T05:51:19.310Z,50.61
2022-09-06T05:53:46.529Z,51.25
2022-09-06T05:56:14.825Z,51.52
2022-09-06T05:58:41.987Z,51.36
2022-09-06T06:01:15.112Z,50.61
2022-09-06T06:03:43.482Z,50.21
2022-09-06T06:06:10.707Z,50.05
2022-09-06T06:08:37.888Z,50.26
2022-09-06T06:11:05.234Z,50.30
2022-09-06T06:13:39.466Z,49.67
2022-09-06T06:16:13.731Z,49.27
2022-09-06T06:18:41.429Z,48.95
2022-09-06T06:21:21.178Z,48.86
2022-09-06T06:23:53.534Z,49.11
2022-09-06T06:26:21.074Z,48.62
2022-09-06T06:28:49.050Z,49.12
2022-09-06T06:31:16.521Z,48.64
2022-09-06T06:33:44.430Z,48.04
2022-09-06T06:36:14.526Z,47.71
2022-09-06T06:38:44.942Z,47.19
2022-09-06T06:41:15.830Z,47.06
2022-09-06T06:43:43.213Z,47.32
2022-09-06T06:46:14.993Z,46.92
2022-09-06T06:48:43.790Z,46.07
2022-09-06T06:51:19.303Z,45.73
2022-09-06T06:53:47.814Z,45.66
2022-09-06T06:56:27.731Z,45.42
2022-09-06T06:58:57.761Z,45.56
2022-09-06T07:01:27.217Z,45.27
2022-09-06T07:03:54.794Z,44.83
2022-09-06T07:09:10.729Z,44.37
2022-09-06T07:11:38.394Z,44.00
2022-09-06T07:14:05.515Z,43.95
2022-09-06T07:16:32.688Z,43.74
2022-09-06T07:19:00.244Z,43.59
2022-09-06T07:21:43.430Z,44.07
2022-09-06T07:24:10.770Z,43.37
2022-09-06T07:26:39.919Z,43.34
2022-09-06T07:29:08.421Z,43.10
2022-09-06T07:34:25.862Z,43.05
2022-09-06T07:36:56.727Z,42.64
2022-09-06T07:39:24.053Z,43.32
2022-09-06T07:41:51.579Z,43.33
2022-09-06T07:44:18.774Z,43.41
2022-09-06T07:46:45.971Z,43.65
2022-09-06T07:49:13.366Z,43.43
2022-09-06T07:51:40.529Z,43.22
2022-09-06T07:54:29.410Z,43.35
2022-09-06T07:56:55.114Z,43.43
2022-09-06T07:59:22.268Z,43.59
2022-09-06T08:01:50.134Z,43.63
2022-09-06T08:04:17.310Z,42.99
2022-09-06T08:09:36.026Z,42.09
2022-09-06T08:12:07.500Z,42.07
2022-09-06T08:14:35.350Z,41.41
2022-09-06T08:17:03.861Z,40.86
2022-09-06T08:19:31.318Z,41.19
2022-09-06T08:21:58.676Z,41.07
2022-09-06T08:24:26.021Z,40.21
2022-09-06T08:26:53.283Z,39.95
2022-09-06T08:29:20.659Z,39.60
2022-09-06T08:31:48.421Z,39.19
2022-09-06T08:34:16.069Z,39.01
2022-09-06T08:36:44.255Z,39.10
2022-09-06T08:39:12.381Z,39.36
2022-09-06T08:41:56.631Z,39.37
2022-09-06T08:47:24.209Z,38.46
2022-09-06T08:49:54.831Z,37.67
2022-09-06T08:53:17.224Z,38.05
2022-09-06T08:56:38.736Z,37.20
2022-09-06T08:59:12.459Z,36.77
2022-09-06T09:02:04.114Z,36.48
2022-09-06T09:04:33.347Z,36.14
2022-09-06T09:07:31.261Z,36.59
2022-09-06T09:10:02.790Z,36.71
2022-09-06T09:12:34.237Z,36.12
2022-09-06T09:15:09.037Z,35.73
2022-09-06T09:17:37.450Z,35.81
2022-09-06T09:20:08.382Z,35.33
2022-09-06T09:22:36.275Z,35.37
2022-09-06T09:25:07.162Z,35.11
2022-09-06T09:27:35.054Z,35.83
2022-09-06T09:32:54.004Z,35.81
2022-09-06T09:35:32.109Z,35.49
2022-09-06T09:38:12.541Z,35.68
2022-09-06T09:41:05.261Z,36.20
2022-09-06T09:43:38.927Z,36.34
2022-09-06T09:46:15.475Z,36.48
2022-09-06T09:49:02.005Z,36.29
2022-09-06T09:51:32.230Z,35.43
2022-09-06T09:54:11.705Z,35.72
2022-09-06T09:56:41.401Z,35.47
2022-09-06T09:59:26.137Z,34.52
2022-09-06T10:02:01.505Z,34.49
2022-09-06T10:04:45.768Z,35.43
2022-09-06T10:07:18.406Z,35.29
2022-09-06T10:10:05.335Z,34.80
2022-09-06T10:12:35.028Z,35.02
2022-09-06T10:15:07.109Z,34.85
2022-09-06T10:17:53.546Z,35.01
2022-09-06T10:20:44.621Z,34.47
2022-09-06T10:26:29.492Z,34.01
2022-09-06T10:29:09.995Z,33.48
2022-09-06T10:31:40.140Z,33.87
2022-09-06T10:34:35.631Z,34.09
2022-09-06T10:37:42.624Z,33.71
2022-09-06T10:40:12.932Z,34.20
2022-09-06T10:42:54.594Z,34.21
2022-09-06T10:45:33.039Z,34.06
2022-09-06T10:48:32.920Z,35.19
2022-09-06T10:51:58.296Z,34.72
2022-09-06T10:54:25.666Z,34.99
2022-09-06T10:56:54.105Z,35.30
2022-09-06T10:59:55.932Z,35.17
2022-09-06T11:06:09.479Z,34.97
2022-09-06T11:09:29.807Z,35.16
2022-09-06T11:12:19.975Z,35.31
2022-09-06T11:14:47.277Z,34.58
2022-09-06T11:18:02.749Z,34.28
2022-09-06T11:20:47.989Z,34.11
2022-09-06T11:24:02.135Z,34.07
2022-09-06T11:26:54.146Z,34.36
2022-09-06T11:29:27.465Z,34.11
2022-09-06T11:34:55.493Z,31.63
2022-09-06T11:37:33.390Z,30.38
2022-09-06T11:40:29.939Z,29.94
2022-09-06T11:42:59.419Z,29.30
2022-09-06T11:45:45.796Z,28.27
2022-09-06T11:48:33.995Z,27.98
2022-09-06T11:51:11.194Z,28.05
2022-09-06T11:53:50.821Z,27.73
2022-09-06T11:56:41.389Z,26.67
2022-09-06T11:59:18.906Z,25.09
2022-09-06T12:02:06.428Z,23.70
2022-09-06T12:05:01.753Z,22.03
2022-09-06T12:07:31.691Z,21.34
2022-09-06T12:10:03.511Z,21.86
2022-09-06T12:12:50.840Z,21.59
2022-09-06T12:15:46.145Z,21.65
2022-09-06T12:18:48.359Z,21.99
2022-09-06T12:21:46.267Z,22.61
2022-09-06T12:24:35.366Z,22.50
2022-09-06T12:27:17.813Z,22.49
2022-09-06T12:29:59.585Z,23.10
2022-09-06T12:32:36.618Z,22.59
2022-09-06T12:38:25.627Z,21.77
2022-09-06T12:40:58.420Z,21.78
2022-09-06T12:43:27.014Z,21.74
2022-09-06T12:45:54.204Z,22.17
2022-09-06T12:48:35.440Z,22.68
2022-09-06T12:51:06.241Z,24.15
2022-09-06T12:53:35.010Z,25.37
2022-09-06T12:56:12.520Z,27.38
2022-09-06T12:58:40.000Z,28.85
2022-09-06T13:01:22.785Z,29.96
2022-09-06T13:04:10.631Z,31.21
2022-09-06T13:06:45.829Z,32.19
2022-09-06T13:09:18.371Z,32.99
2022-09-06T13:11:51.056Z,33.20
2022-09-06T13:14:28.362Z,33.59
2022-09-06T13:16:57.321Z,34.36
2022-09-06T13:19:34.304Z,34.78
2022-09-06T13:22:05.546Z,35.50
2022-09-06T13:24:35.759Z,36.13
2022-09-06T13:27:31.500Z,36.77
2022-09-06T13:30:10.364Z,39.57
2022-09-06T13:32:46.963Z,43.08
2022-09-06T13:35:24.296Z,45.67
2022-09-06T13:37:51.580Z,47.06
2022-09-06T13:41:06.722Z,50.08
2022-09-06T13:43:32.692Z,53.99
2022-09-06T13:46:08.067Z,61.64
2022-09-06T13:48:36.041Z,68.83
2022-09-06T13:51:09.734Z,72.59
2022-09-06T13:53:37.106Z,73.84
2022-09-06T13:56:08.733Z,75.70
2022-09-06T13:58:37.018Z,75.06
2022-09-06T14:01:09.979Z,73.18
2022-09-06T14:03:40.955Z,72.47
2022-09-06T14:06:10.132Z,71.61
2022-09-06T14:09:03.427Z,71.29
2022-09-06T14:11:26.686Z,69.66
2022-09-06T14:13:53.907Z,69.87
2022-09-06T14:16:21.215Z,68.94
2022-09-06T14:18:48.526Z,68.82
2022-09-06T14:21:15.727Z,67.99
2022-09-06T14:23:42.924Z,67.32
2022-09-06T14:26:10.644Z,66.96
2022-09-06T14:28:40.867Z,66.86
2022-09-06T14:31:25.989Z,66.76
2022-09-06T14:33:57.321Z,65.28
2022-09-06T14:36:29.398Z,65.24
2022-09-06T14:38:58.873Z,62.75
2022-09-06T14:41:27.146Z,62.85
2022-09-06T14:43:57.240Z,60.72
2022-09-06T14:46:26.499Z,58.59
2022-09-06T14:49:03.108Z,58.85
2022-09-06T14:51:30.761Z,58.86
2022-09-06T14:54:05.856Z,58.24
2022-09-06T14:56:33.191Z,57.68
2022-09-06T14:59:00.865Z,57.02
2022-09-06T15:01:35.770Z,56.75
2022-09-06T15:04:08.046Z,57.23
2022-09-06T15:06:39.204Z,57.59
2022-09-06T15:09:07.858Z,57.41
2022-09-06T15:11:39.431Z,56.61
2022-09-06T15:14:13.567Z,56.31
2022-09-06T15:16:40.981Z,56.72
2022-09-06T15:19:08.938Z,56.29
2022-09-06T15:21:36.725Z,56.40
2022-09-06T15:24:11.022Z,56.17
2022-09-06T15:26:41.182Z,56.31
2022-09-06T15:29:10.290Z,56.07
2022-09-06T15:31:38.494Z,54.97
2022-09-06T15:34:07.490Z,55.67
2022-09-06T15:36:35.548Z,56.65
2022-09-06T15:39:05.899Z,57.54
2022-09-06T15:41:37.683Z,57.46
2022-09-06T15:44:14.389Z,57.43
2022-09-06T15:47:00.769Z,57.34
2022-09-06T15:49:31.923Z,58.10
2022-09-06T15:52:02.636Z,58.71
2022-09-06T15:54:49.240Z,59.24
2022-09-06T15:57:17.763Z,58.97
2022-09-06T15:59:45.504Z,58.97
2022-09-06T16:02:13.647Z,59.02
2022-09-06T16:04:41.178Z,59.21
2022-09-06T16:07:09.782Z,59.66
2022-09-06T16:09:37.002Z,59.87
2022-09-06T16:12:04.972Z,59.88
2022-09-06T16:14:32.376Z,59.65
2022-09-06T16:16:59.803Z,59.93
2022-09-06T16:19:27.338Z,59.93
2022-09-06T16:21:54.614Z,60.00
2022-09-06T16:24:23.018Z,60.23
2022-09-06T16:26:50.849Z,60.23
2022-09-06T16:29:19.224Z,60.28
2022-09-06T16:31:47.401Z,60.39
2022-09-06T16:34:15.107Z,60.09
2022-09-06T16:36:42.661Z,60.17
2022-09-06T16:39:10.973Z,60.13
2022-09-06T16:41:46.195Z,60.54
2022-09-06T16:44:17.383Z,61.05
2022-09-06T16:46:50.158Z,60.82
2022-09-06T16:49:19.380Z,60.28
2022-09-06T16:51:48.451Z,59.78
2022-09-06T16:54:16.731Z,59.06
2022-09-06T16:56:44.548Z,59.03
2022-09-06T16:59:13.077Z,59.23
2022-09-06T17:01:41.959Z,59.46
2022-09-06T17:04:09.965Z,59.40
2022-09-06T17:06:44.673Z,59.37
2022-09-06T17:09:15.978Z,59.04
2022-09-06T17:11:43.334Z,59.06
2022-09-06T17:14:10.637Z,59.44
2022-09-06T17:16:56.715Z,59.62
2022-09-06T17:19:24.212Z,59.54
2022-09-06T17:21:51.708Z,60.06
2022-09-06T17:24:19.043Z,59.83
2022-09-06T17:26:46.383Z,59.78
2022-09-06T17:29:13.588Z,59.75
2022-09-06T17:31:40.766Z,60.25
2022-09-06T17:34:08.116Z,60.72
2022-09-06T17:36:36.483Z,61.08
2022-09-06T17:39:11.026Z,61.41
2022-09-06T17:41:43.192Z,61.40
2022-09-06T17:44:13.209Z,61.52
2022-09-06T17:46:52.252Z,61.32
2022-09-06T17:49:25.842Z,62.51
2022-09-06T17:51:53.360Z,62.36
2022-09-06T17:54:20.571Z,62.52
2022-09-06T17:56:47.829Z,62.71
2022-09-06T17:59:15.691Z,62.54
2022-09-06T18:01:46.062Z,62.51
2022-09-06T18:04:18.181Z,62.62
2022-09-06T18:06:46.852Z,63.05
2022-09-06T18:09:17.573Z,63.63
2022-09-06T18:11:48.531Z,63.95
2022-09-06T18:14:20.957Z,64.27
2022-09-06T18:16:51.573Z,63.58
2022-09-06T18:19:19.012Z,64.08
2022-09-06T18:21:47.380Z,64.37
2022-09-06T18:24:14.908Z,64.70
2022-09-06T18:26:43.275Z,64.80
2022-09-06T18:29:13.138Z,65.18
2022-09-06T18:31:41.390Z,65.65
2022-09-06T18:34:09.355Z,65.92
2022-09-06T18:36:38.468Z,65.84
2022-09-06T18:39:06.464Z,66.18
2022-09-06T18:41:53.411Z,66.56
2022-09-06T18:44:21.626Z,66.71
2022-09-06T18:46:49.072Z,66.78
2022-09-06T18:49:17.449Z,67.23
2022-09-06T18:51:45.608Z,67.37
2022-09-06T18:54:13.699Z,67.67
2022-09-06T18:56:42.021Z,67.86
2022-09-06T18:59:10.873Z,68.26
2022-09-06T19:01:39.011Z,68.52
2022-09-06T19:04:07.299Z,68.25
2022-09-06T19:06:37.750Z,68.23
2022-09-06T19:09:10.907Z,68.45
2022-09-06T19:11:38.240Z,68.39
2022-09-06T19:14:05.829Z,68.28
2022-09-06T19:16:33.754Z,68.51
2022-09-06T19:19:07.355Z,68.23
2022-09-06T19:21:40.788Z,67.85
2022-09-06T19:24:10.929Z,67.27
2022-09-06T19:26:41.806Z,67.58
2022-09-06T19:29:14.845Z,68.15
2022-09-06T19:31:42.935Z,68.54
2022-09-06T19:34:12.261Z,68.40
2022-09-06T19:36:39.597Z,68.37
2022-09-06T19:39:10.075Z,68.43
2022-09-06T19:41:40.011Z,68.41
2022-09-06T19:44:09.028Z,68.23
2022-09-06T19:46:37.635Z,68.05
2022-09-06T19:49:08.258Z,68.19
2022-09-06T19:51:37.203Z,68.48
2022-09-06T19:54:05.507Z,68.54
2022-09-06T19:56:36.401Z,68.55
2022-09-06T19:59:07.390Z,68.58
2022-09-06T20:01:37.751Z,68.54
2022-09-06T20:04:10.929Z,68.46
2022-09-06T20:06:39.212Z,68.78
2022-09-06T20:09:09.128Z,68.70
2022-09-06T20:11:40.166Z,68.85
2022-09-06T20:14:08.753Z,68.87
2022-09-06T20:16:41.217Z,69.13
2022-09-06T20:19:10.531Z,69.08
2022-09-06T20:21:38.140Z,69.09
2022-09-06T20:24:05.548Z,68.90
2022-09-06T20:26:32.866Z,69.03
2022-09-06T20:29:02.757Z,68.93
2022-09-06T20:31:31.502Z,69.24
2022-09-06T20:34:00.750Z,68.93
2022-09-06T20:36:28.511Z,68.82
2022-09-06T20:38:55.986Z,69.01
2022-09-06T20:41:27.458Z,69.08
2022-09-06T20:43:57.531Z,68.98
2022-09-06T20:46:28.529Z,69.22
2022-09-06T20:48:59.759Z,69.28
2022-09-06T20:51:26.981Z,69.44
2022-09-06T20:53:59.281Z,69.53
2022-09-06T20:56:36.904Z,69.50
2022-09-06T20:59:08.814Z,69.27
2022-09-06T21:01:42.976Z,69.21
2022-09-06T21:04:11.864Z,69.26
2022-09-06T21:06:40.421Z,69.19
2022-09-06T21:09:13.856Z,69.23
2022-09-06T21:11:41.946Z,69.45
2022-09-06T21:14:10.271Z,69.54
2022-09-06T21:16:39.019Z,69.48
2022-09-06T21:19:08.656Z,69.44
2022-09-06T21:21:36.168Z,69.57
2022-09-06T21:24:06.175Z,69.83
2022-09-06T21:26:33.980Z,69.80
2022-09-06T21:29:01.482Z,69.86
2022-09-06T21:31:34.776Z,69.93
2022-09-06T21:34:06.495Z,69.85
2022-09-06T21:36:37.743Z,69.93
2022-09-06T21:39:09.630Z,69.71
2022-09-06T21:41:42.324Z,69.72
2022-09-06T21:44:10.582Z,69.84
2022-09-06T21:46:39.535Z,69.71
2022-09-06T21:49:10.142Z,69.58
2022-09-06T21:51:38.046Z,69.84
2022-09-06T21:54:06.210Z,69.55
2022-09-06T21:56:35.948Z,69.67
2022-09-06T21:59:04.889Z,69.78
2022-09-06T22:01:35.150Z,70.13
2022-09-06T22:04:03.546Z,70.05
2022-09-06T22:06:32.798Z,70.17
2022-09-06T22:09:04.994Z,70.38
2022-09-06T22:11:34.821Z,70.38
2022-09-06T22:14:06.978Z,70.47
2022-09-06T22:16:37.197Z,70.63
2022-09-06T22:19:06.807Z,70.80
2022-09-06T22:21:34.326Z,70.76
2022-09-06T22:24:05.355Z,70.80
2022-09-06T22:26:35.132Z,70.63
2022-09-06T22:29:06.447Z,70.63
2022-09-06T22:31:35.262Z,70.81
2022-09-06T22:34:02.825Z,70.58
2022-09-06T22:36:29.966Z,70.51
2022-09-06T22:38:57.729Z,70.65
2022-09-06T22:41:30.926Z,70.39
2022-09-06T22:44:01.133Z,70.36
2022-09-06T22:46:29.273Z,70.42
2022-09-06T22:48:56.466Z,70.44
2022-09-06T22:51:23.632Z,70.36
2022-09-06T22:53:50.974Z,70.31
2022-09-06T22:56:18.208Z,69.98
2022-09-06T22:58:45.465Z,69.88
2022-09-06T23:01:16.686Z,69.81
2022-09-06T23:03:44.742Z,69.74
2022-09-06T23:06:12.107Z,69.61
2022-09-06T23:08:40.874Z,69.22
2022-09-06T23:11:14.890Z,69.39
2022-09-06T23:13:47.133Z,69.32
2022-09-06T23:16:18.544Z,69.56
2022-09-06T23:18:47.210Z,69.33
2022-09-06T23:21:21.002Z,69.39
2022-09-06T23:23:50.791Z,69.53
2022-09-06T23:26:28.664Z,69.63
2022-09-06T23:28:58.903Z,69.42
2022-09-06T23:31:32.514Z,69.51
2022-09-06T23:34:01.936Z,69.28
2022-09-06T23:36:29.730Z,69.06
2022-09-06T23:38:57.673Z,69.03
2022-09-06T23:41:25.146Z,69.31
2022-09-06T23:43:52.287Z,69.31
2022-09-06T23:46:19.768Z,69.56
2022-09-06T23:48:47.227Z,70.27
2022-09-06T23:51:14.714Z,70.45
2022-09-06T23:53:42.020Z,70.42
2022-09-06T23:56:10.109Z,70.25
2022-09-06T23:58:38.394Z,69.98
